Asotin, Washington
Current Conditions -  °F | °C
As of 12:56 PM on Sunday 23 Nov 2014 (Local Time) from KLWS Reporting Station
Overcast Overcast  
Wind Chill: 42°   Ceiling: 9000
Heat Index: 49°   Visibility: 10mi
Dew Point: 33°   Wind: 22mph
Humidity: 54%   Direction: 190°S
Pressure: 30.09"   Gusts: 31mph
Location:  46.34°N, 117.05°W
Report Text: KLWS 232056Z 19019G27KT 10SM FEW065 OVC090 09/01 A3009 RMK AO2 PK WND 19027/2056 SLP195 T00940006 58031
Loading
Personal Weather Stations






























Interactive Weather Map New forecast layout! Learn more

10-Day Weather Forecast

Advertisements
Track Severe Weather on mobile